ProRodeoTv.Com
Red

PRCA Stock Statistics

SEARCH BY:
Stock Rodeo Contestant Stock Contractor

Pistol Preece

EVENT:
Unofficial results reflect placement at time of Web posting and can change.

SEASON BREAKDOWN

Season Attempts Qual Rides Re-rides Ride %
2018 41 14 0 34.15 %
2017 57 14 0 24.56 %
2016 63 15 0 23.81 %
2015 28 10 0 35.71 %
Totals 189 53 0 0.00 %

RODEO DETAIL

Date Location Rodeo SC Brand Ride Comments Stock Score Contestant Score
4/20/2018 Wichita Falls, TX Wichita Falls PRCA Rodeo HL 55 0.00 22.00 / 22.00 0.00 / 0.00
4/20/2018 Red Bluff, CA Red Bluff Round-Up FU 1474/2 0.00 20.00 / 20.00 0.00 / 0.00
4/7/2018 Huntsville, TX Walker County Fair & Rodeo SS 121 0.00 21.00 / 20.00 0.00 / 0.00
3/31/2018 Lawton, OK Lawton Extreme Bulls FR B29 80.00 20.00 / 19.50 20.00 / 20.50
3/30/2018 Lubbock, TX ABC Pro Rodeo BU R22 56.00 14.00 / 13.00 14.00 / 15.00
3/22/2018 Nacogdoches, TX Nacogdoches Pro Rodeo & Steer Show CR 150 79.50 20.00 / 19.00 20.50 / 20.00
3/19/2018 Austin, TX Rodeo Austin DH 02B 0.00 18.50 / 18.00 0.00 / 0.00
3/17/2018 Goliad, TX Goliad County Fair PRCA Rodeo SH 326 0.00 22.00 / 21.00 0.00 / 0.00
3/15/2018 Mercedes, TX Rio Grande Valley Livestock Show & Rodeo DK 026 0.00 20.50 / 21.00 0.00 / 0.00
3/14/2018 Mercedes, TX Rio Grande Valley Livestock Show & Rodeo Xtreme Bulls DK 914 0.00 20.00 / 17.00 0.00 / 0.00
3/10/2018 Arcadia, FL Arcadia All-Fla Championship Rodeo FR 416 69.00 18.00 / 17.00 18.00 / 16.00
3/9/2018 Okeechobee, FL Okeechobee Florida Cowtown Rodeo SI K42 70.00 18.00 / 17.00 19.00 / 16.00
2/23/2018 Tucson, AZ La Fiesta De Los Vaqueros BU 252 0.00 20.00 / 20.00 0.00 / 0.00
2/22/2018 Perry, GA Georgia National Jr Livestock Show & Rodeo BA 28 82.50 19.00 / 20.50 21.00 / 22.00
2/18/2018 Los Fresnos, TX Los Fresnos PRCA Rodeo UP 11 0.00 19.00 / 20.50 0.00 / 0.00
2/17/2018 San Antonio, TX San Antonio Stock Show & Rodeo RH 47 80.50 19.00 / 20.50 20.00 / 21.00
2/17/2018 San Antonio, TX San Antonio Stock Show & Rodeo RH 211 0.00 20.00 / 19.00 0.00 / 0.00
2/16/2018 San Antonio, TX San Antonio Stock Show & Rodeo FR 1 0.00 21.00 / 22.00 0.00 / 0.00
2/10/2018 Jackson, MS Dixie National Rodeo BR X51 83.00 20.50 / 20.00 21.50 / 21.00
2/9/2018 Belton, TX Bell County PRCA Rodeo AN F50 0.00 0.00 / 23.00 0.00 / 0.00
2/3/2018 San Angelo, TX San Angelo Rodeo PC 256 0.00 20.00 / 19.00 0.00 / 0.00
1/31/2018 Fort Worth, TX Southwestern Exposition and Livestock Show WR 1285 77.00 19.50 / 20.00 18.50 / 19.00
1/30/2018 Fort Worth, TX Southwestern Exposition and Livestock Show RG 417 0.00 22.00 / 20.00 0.00 / 0.00
1/17/2018 Fort Worth, TX SWELS - Xtreme Bulls SH 093 0.00 0.00 / 0.00 0.00 / 0.00
1/17/2018 Denver, CO National Western Stock Show and Rodeo CC 07 0.00 21.00 / 19.00 0.00 / 0.00
Page of 2
Per Page
 
 
 
footer-april-24
MGM Grand Polaris Ranger
Copyright © 2018 Professional Rodeo Cowboys Association. All rights reserved. No portion of ProRodeo.com may be duplicated, redistributed or manipulated in any form. By accessing any information beyond this page, you agree to abide by the Terms of Use.
PRCA Wrangler National Finals Rodeo Wrangler ProRodeo Tour Finale Presented by Justin Boots Xtreme Bulls RAM National Circuit Finals Rodeo ProRodeo Gear